Aérodrome :
LOGIN :

S'inscrire | Disclaimer

   EN    FR    IT 

 










Légende :    VFR   VFR Marginal   IFR   IFR Intensif   IFR Très Intensif
Visi : 
Plafond : 
>= 8 km
>= 3000ft
5 à 8 km
1000 à 3000 ft
1500m à 5 km
500 à 1000 ft
800 à 1500m
200 à 500 ft
< 800m
< 200 ft
Symboles :   Orages  Brouillard  Fortes neiges  Fortes précipitations  Vent > 20 kt
SIGMETs :   Divers  Orages  Givrage  Turbulence  Onde Orograph.  Cendres Volcan.







- Altitude de l'aérodrome : 75 ft
- Code IATA : YEO


EGDY - RNAS Yeovilton

DERNIER METAR :
  • 280650Z 21003KT 9999 FEW020 SCT040 00/M01 Q0987 BLU

METARs EXPIRÉS :
  • 280550Z 29006KT 9999 FEW030 01/M00 Q0987 BLU
  • 280450Z 25004KT 9999 FEW030 02/01 Q0986 BLU

TAF AMD TAF EGDY
Valide du 28 à 07h jusqu'au 28 à 16h UTC


280644Z 2807/2816 27007KT 9999 FEW030
TEMPO 2807/2812 7000 -SHRA SCT018TCU
TEMPO 2811/2816 9999 SCT025
TEMPO 2811/2816 5000 FEW010 SCT018TCU
PROB30
TEMPO 2811/2816 3000 +SHRA SCT010 SCT015CB
Pas de NOTAMs connus pour ce terrain.



MET'MAP, la Météo Aéronautique d'un coup d'oeil ! - Copyright ORBIFLY Décembre 2007 - Disclaimer

ORBIFLY MET'MAP TEAM :

Programmation & Développement : Alexandra Zaïnal
Conception & Développement : Baudouin d'Aumeries
Co-Programmation & Développement : Marc-Olivier Méhu
Soutien technique & logistique : Manuel Goepfert

Contact : metmap@orbifly.com




SOURCES & CREDITS :

   NOAA